createdAt,value
2018-08-22T00:01:16.551Z,101291.52
2018-08-22T00:03:46.664Z,101289.62
2018-08-22T00:06:16.734Z,101290.56
2018-08-22T00:08:46.823Z,101297.39
2018-08-22T00:11:16.930Z,101292.97
2018-08-22T00:13:46.982Z,101291.24
2018-08-22T00:16:17.053Z,101292.89
2018-08-22T00:18:47.130Z,101287.94
2018-08-22T00:21:17.227Z,101290.22
2018-08-22T00:23:47.320Z,101290.80
2018-08-22T00:26:17.472Z,101295.30
2018-08-22T00:28:47.585Z,101285.27
2018-08-22T00:31:17.743Z,101290.13
2018-08-22T00:33:47.917Z,101291.56
2018-08-22T00:36:18.057Z,101287.19
2018-08-22T00:38:48.092Z,101287.77
2018-08-22T00:41:18.186Z,101282.73
2018-08-22T00:43:48.254Z,101286.26
2018-08-22T00:46:18.376Z,101287.33
2018-08-22T00:48:48.462Z,101286.39
2018-08-22T00:51:18.584Z,101285.99
2018-08-22T00:53:48.636Z,101289.90
2018-08-22T00:56:18.706Z,101285.08
2018-08-22T00:58:48.771Z,101284.91
2018-08-22T01:01:18.844Z,101288.01
2018-08-22T01:03:48.941Z,101276.35
2018-08-22T01:06:19.037Z,101285.33
2018-08-22T01:08:49.267Z,101284.42
2018-08-22T01:11:19.416Z,101277.65
2018-08-22T01:13:49.507Z,101277.08
2018-08-22T01:16:19.653Z,101278.59
2018-08-22T01:18:49.745Z,101269.78
2018-08-22T01:21:19.865Z,101276.27
2018-08-22T01:23:49.877Z,101279.30
2018-08-22T01:26:19.997Z,101281.13
2018-08-22T01:28:50.035Z,101275.52
2018-08-22T01:31:20.207Z,101277.66
2018-08-22T01:33:50.277Z,101277.44
2018-08-22T01:36:20.362Z,101265.54
2018-08-22T01:38:50.505Z,101267.19
2018-08-22T01:41:20.689Z,101268.84
2018-08-22T01:43:50.761Z,101266.88
2018-08-22T01:46:20.919Z,101272.05
2018-08-22T01:48:51.009Z,101264.61
2018-08-22T01:51:21.201Z,101266.70
2018-08-22T01:53:51.206Z,101263.86
2018-08-22T01:56:21.346Z,101262.95
2018-08-22T01:58:51.490Z,101262.84
2018-08-22T02:01:21.512Z,101258.99
2018-08-22T02:03:51.592Z,101258.95
2018-08-22T02:06:21.779Z,101258.45
2018-08-22T02:08:51.860Z,101258.70
2018-08-22T02:11:22.035Z,101253.48
2018-08-22T02:13:52.104Z,101256.94
2018-08-22T02:16:22.198Z,101248.11
2018-08-22T02:18:52.243Z,101258.45
2018-08-22T02:21:22.401Z,101254.44
2018-08-22T02:23:52.517Z,101251.02
2018-08-22T02:26:22.588Z,101251.59
2018-08-22T02:28:52.677Z,101257.41
2018-08-22T02:31:22.826Z,101250.89
2018-08-22T02:33:53.083Z,101247.65
2018-08-22T02:36:23.241Z,101247.86
2018-08-22T02:38:53.330Z,101241.73
2018-08-22T02:41:23.462Z,101244.47
2018-08-22T02:43:53.613Z,101245.32
2018-08-22T02:46:23.728Z,101240.04
2018-08-22T02:48:56.816Z,101241.95
2018-08-22T02:51:27.470Z,101237.09
2018-08-22T02:53:57.539Z,101237.73
2018-08-22T02:56:27.620Z,101237.92
2018-08-22T02:58:57.713Z,101238.67
2018-08-22T03:01:27.788Z,101239.52
2018-08-22T03:03:58.019Z,101241.34
2018-08-22T03:06:28.140Z,101243.37
2018-08-22T03:08:58.257Z,101236.02
2018-08-22T03:11:28.405Z,101240.61
2018-08-22T03:13:58.480Z,101239.00
2018-08-22T03:16:28.651Z,101241.19
2018-08-22T03:18:58.745Z,101240.03
2018-08-22T03:21:28.857Z,101235.71
2018-08-22T03:23:58.894Z,101235.77
2018-08-22T03:26:28.991Z,101230.15
2018-08-22T03:28:59.050Z,101234.81
2018-08-22T03:31:29.193Z,101232.86
2018-08-22T03:33:59.265Z,101230.58
2018-08-22T03:36:29.345Z,101227.33
2018-08-22T03:38:59.399Z,101224.48
2018-08-22T03:41:29.516Z,101223.20
2018-08-22T03:43:59.621Z,101225.16
2018-08-22T03:46:29.882Z,101229.52
2018-08-22T03:48:59.962Z,101221.86
2018-08-22T03:51:30.079Z,101226.48
2018-08-22T03:54:00.488Z,101219.48
2018-08-22T03:56:30.775Z,101223.52
2018-08-22T03:59:00.893Z,101221.72
2018-08-22T04:01:31.009Z,101220.84
2018-08-22T04:04:01.108Z,101232.21
2018-08-22T04:06:31.275Z,101223.87
2018-08-22T04:09:01.403Z,101232.02
2018-08-22T04:11:31.562Z,101230.70
2018-08-22T04:14:01.641Z,101232.81
2018-08-22T04:16:31.762Z,101231.78
2018-08-22T04:19:01.856Z,101231.67
2018-08-22T04:21:31.957Z,101227.88
2018-08-22T04:24:02.066Z,101229.68
2018-08-22T04:26:32.149Z,101232.92
2018-08-22T04:29:02.227Z,101227.67
2018-08-22T04:31:32.290Z,101227.67
2018-08-22T04:34:02.358Z,101225.69
2018-08-22T04:36:32.463Z,101221.59
2018-08-22T04:39:02.592Z,101229.03
2018-08-22T04:41:32.716Z,101224.08
2018-08-22T04:44:02.779Z,101225.98
2018-08-22T04:46:33.248Z,101229.61
2018-08-22T04:49:03.435Z,101227.52
2018-08-22T04:51:33.616Z,101228.48
2018-08-22T04:54:03.731Z,101225.21
2018-08-22T04:56:33.851Z,101229.33
2018-08-22T04:59:04.035Z,101224.27
2018-08-22T05:01:34.167Z,101229.80
2018-08-22T05:04:04.258Z,101227.70
2018-08-22T05:06:34.434Z,101228.84
2018-08-22T05:09:05.587Z,101223.02
2018-08-22T05:11:35.800Z,101221.17
2018-08-22T05:14:06.031Z,101218.47
2018-08-22T05:16:36.097Z,101213.71
2018-08-22T05:19:06.144Z,101217.75
2018-08-22T05:21:36.276Z,101218.65
2018-08-22T05:24:06.458Z,101215.69
2018-08-22T05:26:36.534Z,101219.73
2018-08-22T05:29:06.721Z,101221.06
2018-08-22T05:31:36.903Z,101220.80
2018-08-22T05:34:07.097Z,101221.23
2018-08-22T05:36:37.207Z,101225.94
2018-08-22T05:39:12.033Z,101218.05
2018-08-22T05:41:42.747Z,101220.73
2018-08-22T05:44:12.836Z,101217.05
2018-08-22T05:46:42.926Z,101220.17
2018-08-22T05:49:13.045Z,101218.55
2018-08-22T05:51:43.254Z,101224.35
2018-08-22T05:54:13.364Z,101224.77
2018-08-22T05:56:43.516Z,101226.74
2018-08-22T05:59:13.732Z,101216.05
2018-08-22T06:01:43.902Z,101209.67
2018-08-22T06:04:14.037Z,101215.11
2018-08-22T06:06:44.209Z,101217.66
2018-08-22T06:09:14.487Z,101221.25
2018-08-22T06:11:45.138Z,101205.09
2018-08-22T06:14:15.183Z,101205.64
2018-08-22T06:16:45.259Z,101197.48
2018-08-22T06:19:15.377Z,101203.99
2018-08-22T06:21:45.483Z,101203.48
2018-08-22T06:24:15.595Z,101195.81
2018-08-22T06:26:45.781Z,101200.75
2018-08-22T06:29:15.848Z,101203.60
2018-08-22T06:31:45.919Z,101203.22
2018-08-22T06:34:15.938Z,101203.30
2018-08-22T06:36:46.017Z,101202.02
2018-08-22T06:39:16.141Z,101199.36
2018-08-22T06:41:46.266Z,101201.30
2018-08-22T06:44:16.396Z,101196.45
2018-08-22T06:46:46.515Z,101196.30
2018-08-22T06:49:16.620Z,101197.70
2018-08-22T06:51:46.681Z,101195.27
2018-08-22T06:54:16.723Z,101186.35
2018-08-22T06:56:46.811Z,101186.81
2018-08-22T06:59:16.928Z,101194.30
2018-08-22T07:01:47.092Z,101181.02
2018-08-22T07:04:17.168Z,101180.58
2018-08-22T07:06:47.315Z,101179.66
2018-08-22T07:09:17.395Z,101176.30
2018-08-22T07:11:47.499Z,101171.77
2018-08-22T07:14:17.617Z,101170.43
2018-08-22T07:16:47.749Z,101172.45
2018-08-22T07:19:17.852Z,101171.61
2018-08-22T07:21:47.944Z,101162.24
2018-08-22T07:24:18.031Z,101164.36
2018-08-22T07:26:48.192Z,101161.77
2018-08-22T07:29:18.240Z,101166.48
2018-08-22T07:31:48.360Z,101158.98
2018-08-22T07:34:18.412Z,101171.76
2018-08-22T07:36:48.566Z,101170.80
2018-08-22T07:39:18.656Z,101165.59
2018-08-22T07:41:48.916Z,101164.12
2018-08-22T07:44:19.068Z,101163.83
2018-08-22T07:46:49.335Z,101172.08
2018-08-22T07:49:19.416Z,101162.52
2018-08-22T07:51:49.629Z,101170.92
2018-08-22T07:54:19.694Z,101170.92
2018-08-22T07:56:49.778Z,101171.77
2018-08-22T07:59:21.592Z,101169.88
2018-08-22T08:01:51.726Z,101165.40
2018-08-22T08:04:21.840Z,101167.86
2018-08-22T08:06:51.957Z,101165.95
2018-08-22T08:09:22.024Z,101168.42
2018-08-22T08:11:52.097Z,101167.64
2018-08-22T08:14:22.178Z,101165.42
2018-08-22T08:16:52.258Z,101164.70
2018-08-22T08:19:22.520Z,101164.28
2018-08-22T08:21:52.684Z,101167.39
2018-08-22T08:24:22.753Z,101161.63
2018-08-22T08:26:52.919Z,101164.50
2018-08-22T08:31:52.051Z,101162.52
2018-08-22T08:34:22.221Z,101161.52
2018-08-22T08:36:52.312Z,101160.58
2018-08-22T08:39:23.242Z,101158.70
2018-08-22T08:41:53.302Z,101157.95
2018-08-22T08:44:23.345Z,101158.00
2018-08-22T08:46:53.639Z,101156.66
2018-08-22T08:49:23.769Z,101152.77
2018-08-22T08:52:01.174Z,101148.22
2018-08-22T08:54:31.462Z,101147.60
2018-08-22T08:57:01.536Z,101143.28
2018-08-22T08:59:31.631Z,101135.58
2018-08-22T09:02:01.834Z,101135.09
2018-08-22T09:04:31.904Z,101129.33
2018-08-22T09:07:02.121Z,101130.77
2018-08-22T09:09:32.234Z,101128.27
2018-08-22T09:12:02.435Z,101124.38
2018-08-22T09:14:32.599Z,101130.03
2018-08-22T09:17:02.756Z,101131.87
2018-08-22T09:19:32.994Z,101128.05
2018-08-22T09:22:03.198Z,101128.27
2018-08-22T09:24:33.326Z,101128.80
2018-08-22T09:27:03.414Z,101126.78
2018-08-22T09:29:33.461Z,101117.28
2018-08-22T09:32:03.564Z,101121.89
2018-08-22T09:34:33.674Z,101120.80
2018-08-22T09:37:03.838Z,101119.96
2018-08-22T09:39:33.980Z,101110.11
2018-08-22T09:42:04.141Z,101112.70
2018-08-22T09:44:34.218Z,101113.96
2018-08-22T09:47:04.571Z,101113.25
2018-08-22T09:49:34.684Z,101109.59
2018-08-22T09:52:05.403Z,101107.39
2018-08-22T09:54:50.631Z,101103.48
2018-08-22T09:57:20.719Z,101102.77
2018-08-22T09:59:50.740Z,101103.50
2018-08-22T10:02:20.939Z,101103.67
2018-08-22T10:04:51.036Z,101101.52
2018-08-22T10:07:21.240Z,101104.69
2018-08-22T10:09:51.345Z,101098.77
2018-08-22T10:12:21.481Z,101089.91
2018-08-22T10:14:51.635Z,101095.44
2018-08-22T10:17:21.788Z,101097.41
2018-08-22T10:19:51.911Z,101094.42
2018-08-22T10:22:22.060Z,101098.05
2018-08-22T10:24:52.145Z,101090.80
2018-08-22T10:27:22.233Z,101100.59
2018-08-22T10:29:52.371Z,101097.90
2018-08-22T10:32:22.540Z,101092.49
2018-08-22T10:34:52.608Z,101086.75
2018-08-22T10:37:22.711Z,101092.70
2018-08-22T10:39:52.853Z,101094.08
2018-08-22T10:42:22.972Z,101081.63
2018-08-22T10:44:53.068Z,101083.23
2018-08-22T10:47:23.185Z,101085.23
2018-08-22T10:49:53.234Z,101084.42
2018-08-22T10:52:23.366Z,101085.17
2018-08-22T10:54:53.485Z,101078.94
2018-08-22T10:57:23.662Z,101079.72
2018-08-22T10:59:53.810Z,101073.36
2018-08-22T11:02:24.005Z,101076.84
2018-08-22T11:04:54.074Z,101075.93
2018-08-22T11:07:24.268Z,101064.20
2018-08-22T11:09:54.406Z,101063.12
2018-08-22T11:12:24.468Z,101054.85
2018-08-22T11:14:54.599Z,101053.91
2018-08-22T11:17:24.807Z,101052.89
2018-08-22T11:19:54.999Z,101055.55
2018-08-22T11:22:41.827Z,101057.43
2018-08-22T11:25:28.751Z,101050.34
2018-08-22T11:28:15.542Z,101048.02
2018-08-22T11:31:02.028Z,101044.73
2018-08-22T11:33:48.715Z,101041.47
2018-08-22T11:36:16.714Z,101036.39
2018-08-22T11:38:53.449Z,101036.58
2018-08-22T11:41:23.497Z,101040.47
2018-08-22T11:43:53.669Z,101050.25
2018-08-22T11:46:23.812Z,101046.82
2018-08-22T11:48:54.017Z,101049.84
2018-08-22T11:51:24.280Z,101046.83
2018-08-22T11:53:54.512Z,101048.05
2018-08-22T11:56:24.665Z,101049.83
2018-08-22T11:58:54.767Z,101037.27
2018-08-22T12:01:24.914Z,101028.20
2018-08-22T12:03:55.073Z,101036.19
2018-08-22T12:06:25.276Z,101034.13
2018-08-22T12:08:55.476Z,101033.78
2018-08-22T12:11:25.679Z,101026.84
2018-08-22T12:13:55.785Z,101030.19
2018-08-22T12:16:25.892Z,101020.14
2018-08-22T12:18:56.008Z,101024.79
2018-08-22T12:21:26.060Z,101022.86
2018-08-22T12:23:56.149Z,101022.45
2018-08-22T12:26:26.278Z,101021.47
2018-08-22T12:28:56.592Z,101019.55
2018-08-22T12:31:26.862Z,101014.36
2018-08-22T12:33:57.025Z,101007.83
2018-08-22T12:36:27.210Z,101008.12
2018-08-22T12:38:57.393Z,101009.59
2018-08-22T12:41:27.801Z,101005.71
2018-08-22T12:43:57.916Z,101006.42
2018-08-22T12:46:28.025Z,101008.64
2018-08-22T12:48:58.145Z,101002.03
2018-08-22T12:51:28.255Z,100994.69
2018-08-22T12:53:58.315Z,100997.20
2018-08-22T12:56:28.454Z,100991.22
2018-08-22T12:58:58.609Z,100997.03
2018-08-22T13:01:28.688Z,101002.16
2018-08-22T13:03:58.813Z,101003.18
2018-08-22T13:06:28.911Z,100998.66
2018-08-22T13:08:59.171Z,100989.95
2018-08-22T13:11:29.319Z,100986.86
2018-08-22T13:13:59.424Z,100983.17
2018-08-22T13:16:29.579Z,100986.52
2018-08-22T13:18:59.717Z,100988.52
2018-08-22T13:21:29.825Z,100984.33
2018-08-22T13:23:59.954Z,100982.42
2018-08-22T13:26:30.097Z,100979.70
2018-08-22T13:29:00.183Z,100974.77
2018-08-22T13:31:30.280Z,100974.00
2018-08-22T13:34:00.431Z,100974.97
2018-08-22T13:36:30.565Z,100971.19
2018-08-22T13:39:00.698Z,100965.05
2018-08-22T13:41:30.748Z,100966.84
2018-08-22T13:44:00.877Z,100963.63
2018-08-22T13:46:30.959Z,100968.17
2018-08-22T13:49:01.052Z,100964.73
2018-08-22T13:51:31.152Z,100965.41
2018-08-22T13:54:01.294Z,100961.77
2018-08-22T13:56:31.452Z,100956.92
2018-08-22T13:59:01.612Z,100962.06
2018-08-22T14:01:31.754Z,100962.60
2018-08-22T14:04:01.904Z,100962.59
2018-08-22T14:06:31.998Z,100963.73
2018-08-22T14:09:02.127Z,100966.72
2018-08-22T14:11:32.215Z,100961.85
2018-08-22T14:14:02.326Z,100963.82
2018-08-22T14:16:32.451Z,100957.03
2018-08-22T14:19:02.594Z,100952.72
2018-08-22T14:21:32.794Z,100954.55
2018-08-22T14:24:03.023Z,100954.95
2018-08-22T14:26:33.069Z,100951.70
2018-08-22T14:29:03.181Z,100952.20
2018-08-22T14:31:33.297Z,100956.89
2018-08-22T14:34:03.459Z,100960.94
2018-08-22T14:36:33.545Z,100951.94
2018-08-22T14:39:03.874Z,100954.47
2018-08-22T14:41:33.988Z,100956.03
2018-08-22T14:44:04.127Z,100952.74
2018-08-22T14:46:34.214Z,100959.30
2018-08-22T14:49:04.417Z,100956.41
2018-08-22T14:51:34.562Z,100958.36
2018-08-22T14:54:04.737Z,100959.83
2018-08-22T14:56:34.906Z,100954.42
2018-08-22T14:59:04.999Z,100956.88
2018-08-22T15:01:35.062Z,100956.17
2018-08-22T15:04:05.205Z,100958.10
2018-08-22T15:06:35.350Z,100950.34
2018-08-22T15:09:11.386Z,100957.27
2018-08-22T15:11:41.550Z,100958.92
2018-08-22T15:14:11.631Z,100940.83
2018-08-22T15:16:41.813Z,100942.16
2018-08-22T15:19:11.922Z,100941.80
2018-08-22T15:21:42.044Z,100940.34
2018-08-22T15:24:12.185Z,100936.25
2018-08-22T15:26:42.370Z,100936.89
2018-08-22T15:29:12.519Z,100944.16
2018-08-22T15:31:42.645Z,100935.74
2018-08-22T15:34:12.876Z,100940.52
2018-08-22T15:36:42.923Z,100939.72
2018-08-22T15:39:13.014Z,100934.56
2018-08-22T15:41:43.134Z,100932.66
2018-08-22T15:44:13.222Z,100935.27
2018-08-22T15:46:43.292Z,100937.86
2018-08-22T15:49:13.368Z,100927.97
2018-08-22T15:51:43.458Z,100932.34
2018-08-22T15:54:15.038Z,100922.40
2018-08-22T15:56:45.225Z,100931.76
2018-08-22T15:59:15.652Z,100925.55
2018-08-22T16:01:45.757Z,100923.08
2018-08-22T16:04:16.023Z,100918.92
2018-08-22T16:06:47.933Z,100922.77
2018-08-22T16:09:22.057Z,100924.79
2018-08-22T16:11:52.185Z,100921.02
2018-08-22T16:14:22.294Z,100917.97
2018-08-22T16:16:52.423Z,100915.72
2018-08-22T16:19:22.595Z,100916.34
2018-08-22T16:21:52.703Z,100917.53
2018-08-22T16:24:28.141Z,100911.05
2018-08-22T16:26:58.239Z,100911.55
2018-08-22T16:29:28.381Z,100909.36
2018-08-22T16:31:58.551Z,100902.98
2018-08-22T16:34:28.709Z,100896.67
2018-08-22T16:36:58.773Z,100908.63
2018-08-22T16:39:42.435Z,100908.80
2018-08-22T16:42:12.800Z,100901.87
2018-08-22T16:44:42.855Z,100911.37
2018-08-22T16:47:13.220Z,100904.64
2018-08-22T16:49:43.399Z,100909.84
2018-08-22T16:52:13.523Z,100912.38
2018-08-22T16:54:43.848Z,100909.44
2018-08-22T16:57:14.017Z,100903.58
2018-08-22T16:59:44.312Z,100899.66
2018-08-22T17:02:14.555Z,100902.23
2018-08-22T17:04:44.765Z,100898.25
2018-08-22T17:07:17.650Z,100897.58
2018-08-22T17:09:49.621Z,100903.72
2018-08-22T17:12:19.819Z,100905.66
2018-08-22T17:14:50.023Z,100902.20
2018-08-22T17:17:20.170Z,100904.83
2018-08-22T17:19:50.337Z,100900.92
2018-08-22T17:22:20.474Z,100900.98
2018-08-22T17:24:50.621Z,100904.40
2018-08-22T17:27:20.747Z,100903.89
2018-08-22T17:29:50.916Z,100906.96
2018-08-22T17:32:21.033Z,100904.94
2018-08-22T17:34:51.218Z,100908.67
2018-08-22T17:37:21.479Z,100906.67
2018-08-22T17:39:51.609Z,100907.03
2018-08-22T17:42:21.953Z,100899.28
2018-08-22T17:44:52.192Z,100905.84
2018-08-22T17:47:22.358Z,100907.91
2018-08-22T17:50:10.647Z,100909.07
2018-08-22T17:52:42.177Z,100912.28
2018-08-22T17:55:12.561Z,100913.32
2018-08-22T17:57:42.881Z,100911.43
2018-08-22T18:00:13.159Z,100915.85
2018-08-22T18:02:43.317Z,100915.84
2018-08-22T18:05:13.447Z,100919.20
2018-08-22T18:07:43.753Z,100925.61
2018-08-22T18:10:13.989Z,100924.95
2018-08-22T18:12:44.017Z,100925.56
2018-08-22T18:15:14.202Z,100926.06
2018-08-22T18:17:44.429Z,100929.41
2018-08-22T18:20:14.723Z,100932.27
2018-08-22T18:22:44.947Z,100929.20
2018-08-22T18:25:15.062Z,100932.20
2018-08-22T18:27:45.942Z,100933.05
2018-08-22T18:30:16.112Z,100933.51
2018-08-22T18:32:46.831Z,100937.50
2018-08-22T18:35:16.955Z,100945.03
2018-08-22T18:37:47.076Z,100943.17
2018-08-22T18:40:27.732Z,100947.34
2018-08-22T18:43:04.187Z,100950.52
2018-08-22T18:45:34.366Z,100949.31
2018-08-22T18:48:06.094Z,100958.78
2018-08-22T18:50:36.330Z,100963.11
2018-08-22T18:53:06.556Z,100963.70
2018-08-22T18:55:36.716Z,100964.81
2018-08-22T18:58:06.982Z,100966.02
2018-08-22T19:00:38.937Z,100971.16
2018-08-22T19:03:09.034Z,100975.36
2018-08-22T19:05:39.406Z,100982.36
2018-08-22T19:08:13.020Z,100973.41
2018-08-22T19:10:45.295Z,100982.05
2018-08-22T19:13:16.145Z,100981.72
2018-08-22T19:15:51.460Z,100986.72
2018-08-22T19:18:21.854Z,100987.02
2018-08-22T19:20:54.139Z,100992.05
2018-08-22T19:23:24.411Z,100990.45
2018-08-22T19:25:55.145Z,100998.12
2018-08-22T19:28:25.237Z,100997.23
2018-08-22T19:30:55.507Z,101001.98
2018-08-22T19:33:26.712Z,101001.55
2018-08-22T19:35:57.143Z,100997.81
2018-08-22T19:38:28.509Z,101000.39
2018-08-22T19:41:00.271Z,101005.53
2018-08-22T19:43:30.457Z,101004.88
2018-08-22T19:46:00.633Z,100998.94
2018-08-22T19:48:30.761Z,101002.51
2018-08-22T19:51:00.919Z,101006.58
2018-08-22T19:53:31.038Z,101008.36
2018-08-22T19:56:01.202Z,101010.45
2018-08-22T19:58:34.403Z,101014.88
2018-08-22T20:01:05.425Z,101010.90
2018-08-22T20:03:36.214Z,101010.54
2018-08-22T20:06:06.421Z,101009.83
2018-08-22T20:08:37.758Z,101020.63
2018-08-22T20:11:08.343Z,101017.28
2018-08-22T20:13:57.199Z,101020.40
2018-08-22T20:16:27.375Z,101017.80
2018-08-22T20:18:58.780Z,101012.83
2018-08-22T20:21:32.102Z,101014.77
2018-08-22T20:24:03.213Z,101012.75
2018-08-22T20:26:33.823Z,101017.71
2018-08-22T20:29:05.248Z,101021.29
2018-08-22T20:31:36.916Z,101021.42
2018-08-22T20:34:11.110Z,101017.30
2018-08-22T20:36:42.349Z,101019.56
2018-08-22T20:39:13.460Z,101018.92
2018-08-22T20:41:44.329Z,101020.05
2018-08-22T20:44:20.696Z,101016.61
2018-08-22T20:46:51.096Z,101014.67
2018-08-22T20:49:21.890Z,101015.80
2018-08-22T20:51:52.106Z,101019.42
2018-08-22T20:54:24.777Z,101027.62
2018-08-22T20:57:00.698Z,101022.31
2018-08-22T20:59:30.861Z,101025.67
2018-08-22T21:02:05.232Z,101035.38
2018-08-22T21:04:36.309Z,101024.63
2018-08-22T21:07:06.772Z,101027.16
2018-08-22T21:09:36.942Z,101024.75
2018-08-22T21:12:07.179Z,101024.38
2018-08-22T21:14:37.339Z,101024.84
2018-08-22T21:17:07.453Z,101020.19
2018-08-22T21:19:37.537Z,101015.00
2018-08-22T21:22:25.562Z,101019.69
2018-08-22T21:24:57.612Z,101032.91
2018-08-22T21:27:27.758Z,101033.64
2018-08-22T21:29:57.933Z,101030.95
2018-08-22T21:32:28.086Z,101036.61
2018-08-22T21:34:58.211Z,101036.34
2018-08-22T21:37:29.858Z,101036.80
2018-08-22T21:39:59.973Z,101033.91
2018-08-22T21:42:33.611Z,101039.61
2018-08-22T21:45:04.234Z,101039.61
2018-08-22T21:47:34.388Z,101042.03
2018-08-22T21:50:05.243Z,101034.70
2018-08-22T21:53:06.989Z,101037.77
2018-08-22T21:55:39.244Z,101035.60
2018-08-22T21:58:10.441Z,101026.97
2018-08-22T22:00:40.551Z,101039.11
2018-08-22T22:03:11.919Z,101042.61
2018-08-22T22:05:50.544Z,101048.52
2018-08-22T22:08:20.615Z,101041.42
2018-08-22T22:10:55.083Z,101042.77
2018-08-22T22:13:25.269Z,101039.50
2018-08-22T22:15:58.622Z,101039.67
2018-08-22T22:18:29.016Z,101036.52
2018-08-22T22:21:12.321Z,101039.95
2018-08-22T22:23:45.178Z,101034.60
2018-08-22T22:26:16.587Z,101040.09
2018-08-22T22:28:46.742Z,101042.69
2018-08-22T22:31:18.076Z,101040.83
2018-08-22T22:34:03.641Z,101034.77
2018-08-22T22:36:34.606Z,101037.20
2018-08-22T22:39:06.713Z,101037.45
2018-08-22T22:41:36.826Z,101040.64
2018-08-22T22:44:06.966Z,101043.52
2018-08-22T22:46:37.057Z,101048.39
2018-08-22T22:49:07.249Z,101047.91
2018-08-22T22:51:37.354Z,101049.72
2018-08-22T22:54:07.608Z,101053.00
2018-08-22T22:56:37.678Z,101053.35
2018-08-22T22:59:08.016Z,101055.39
2018-08-22T23:01:38.230Z,101055.11
2018-08-22T23:04:08.416Z,101058.27
2018-08-22T23:06:38.513Z,101054.70
2018-08-22T23:09:09.018Z,101050.34
2018-08-22T23:11:39.152Z,101055.78
2018-08-22T23:14:09.357Z,101045.38
2018-08-22T23:16:39.436Z,101048.50
2018-08-22T23:19:09.595Z,101046.45
2018-08-22T23:21:39.770Z,101049.71
2018-08-22T23:24:19.427Z,101048.33
2018-08-22T23:26:49.610Z,101048.41
2018-08-22T23:29:19.759Z,101041.95
2018-08-22T23:31:49.805Z,101037.95
2018-08-22T23:34:19.967Z,101032.69
2018-08-22T23:36:50.062Z,101042.86
2018-08-22T23:39:22.954Z,101039.68
2018-08-22T23:41:53.075Z,101040.50
2018-08-22T23:44:23.236Z,101037.42
2018-08-22T23:46:53.330Z,101040.81
2018-08-22T23:49:23.583Z,101037.82
2018-08-22T23:51:53.801Z,101045.70
2018-08-22T23:54:24.103Z,101045.31
2018-08-22T23:56:58.180Z,101040.05
2018-08-22T23:59:28.255Z,101034.67
